sensor_id;sensor_type;location;lat;lon;timestamp;P1;durP1;ratioP1;P2;durP2;ratioP2
72755;SDS011;60881;55.002;73.232;2022-09-23T00:02:16;7.80;;;0.98;;
72755;SDS011;60881;55.002;73.232;2022-09-23T00:04:42;6.30;;;0.90;;
72755;SDS011;60881;55.002;73.232;2022-09-23T00:07:10;1.80;;;0.93;;
72755;SDS011;60881;55.002;73.232;2022-09-23T00:09:41;4.50;;;0.90;;
72755;SDS011;60881;55.002;73.232;2022-09-23T00:12:07;4.53;;;1.05;;
72755;SDS011;60881;55.002;73.232;2022-09-23T00:14:38;4.72;;;1.20;;
72755;SDS011;60881;55.002;73.232;2022-09-23T00:17:05;8.48;;;1.10;;
72755;SDS011;60881;55.002;73.232;2022-09-23T00:19:42;7.35;;;1.02;;
72755;SDS011;60881;55.002;73.232;2022-09-23T00:22:14;7.20;;;1.00;;
72755;SDS011;60881;55.002;73.232;2022-09-23T00:24:41;4.20;;;1.30;;
72755;SDS011;60881;55.002;73.232;2022-09-23T00:27:07;4.55;;;1.10;;
72755;SDS011;60881;55.002;73.232;2022-09-23T00:29:34;9.32;;;1.38;;
72755;SDS011;60881;55.002;73.232;2022-09-23T00:32:12;3.75;;;1.27;;
72755;SDS011;60881;55.002;73.232;2022-09-23T00:34:43;6.00;;;1.33;;
72755;SDS011;60881;55.002;73.232;2022-09-23T00:37:09;8.55;;;1.30;;
72755;SDS011;60881;55.002;73.232;2022-09-23T00:39:36;6.45;;;1.20;;
72755;SDS011;60881;55.002;73.232;2022-09-23T00:42:03;9.52;;;1.48;;
72755;SDS011;60881;55.002;73.232;2022-09-23T00:47:30;12.48;;;1.70;;
72755;SDS011;60881;55.002;73.232;2022-09-23T00:50:09;7.55;;;1.30;;
72755;SDS011;60881;55.002;73.232;2022-09-23T00:52:51;8.80;;;1.83;;
72755;SDS011;60881;55.002;73.232;2022-09-23T00:55:22;9.80;;;1.23;;
72755;SDS011;60881;55.002;73.232;2022-09-23T00:57:53;15.43;;;1.52;;
72755;SDS011;60881;55.002;73.232;2022-09-23T01:00:34;11.88;;;1.30;;
72755;SDS011;60881;55.002;73.232;2022-09-23T01:03:00;15.57;;;1.50;;
72755;SDS011;60881;55.002;73.232;2022-09-23T01:05:31;10.55;;;1.52;;
72755;SDS011;60881;55.002;73.232;2022-09-23T01:07:58;8.27;;;1.20;;
72755;SDS011;60881;55.002;73.232;2022-09-23T01:10:29;10.23;;;1.20;;
72755;SDS011;60881;55.002;73.232;2022-09-23T01:16:07;9.88;;;1.20;;
72755;SDS011;60881;55.002;73.232;2022-09-23T01:24:45;17.27;;;1.60;;
72755;SDS011;60881;55.002;73.232;2022-09-23T01:27:29;11.10;;;1.67;;
72755;SDS011;60881;55.002;73.232;2022-09-23T01:38:40;14.55;;;2.20;;
72755;SDS011;60881;55.002;73.232;2022-09-23T01:44:07;12.23;;;2.60;;
72755;SDS011;60881;55.002;73.232;2022-09-23T01:46:49;15.90;;;2.55;;
72755;SDS011;60881;55.002;73.232;2022-09-23T01:52:10;23.80;;;2.65;;
72755;SDS011;60881;55.002;73.232;2022-09-23T01:57:43;22.60;;;3.20;;
72755;SDS011;60881;55.002;73.232;2022-09-23T02:00:15;11.25;;;2.90;;
72755;SDS011;60881;55.002;73.232;2022-09-23T02:02:56;14.32;;;2.90;;
72755;SDS011;60881;55.002;73.232;2022-09-23T02:05:33;28.25;;;3.28;;
72755;SDS011;60881;55.002;73.232;2022-09-23T02:08:19;23.60;;;3.42;;
72755;SDS011;60881;55.002;73.232;2022-09-23T02:10:54;18.10;;;3.85;;
72755;SDS011;60881;55.002;73.232;2022-09-23T02:13:44;23.15;;;3.50;;
72755;SDS011;60881;55.002;73.232;2022-09-23T02:16:35;14.05;;;3.38;;
72755;SDS011;60881;55.002;73.232;2022-09-23T02:19:06;17.23;;;3.42;;
72755;SDS011;60881;55.002;73.232;2022-09-23T02:21:59;22.20;;;3.30;;
72755;SDS011;60881;55.002;73.232;2022-09-23T02:24:35;16.58;;;3.42;;
72755;SDS011;60881;55.002;73.232;2022-09-23T02:29:42;32.60;;;6.63;;
72755;SDS011;60881;55.002;73.232;2022-09-23T02:46:33;15.23;;;1.85;;
72755;SDS011;60881;55.002;73.232;2022-09-23T02:52:01;17.30;;;1.90;;
72755;SDS011;60881;55.002;73.232;2022-09-23T02:54:32;20.35;;;2.13;;
72755;SDS011;60881;55.002;73.232;2022-09-23T02:57:00;18.02;;;2.03;;
72755;SDS011;60881;55.002;73.232;2022-09-23T02:59:34;16.92;;;1.80;;
72755;SDS011;60881;55.002;73.232;2022-09-23T03:10:09;20.60;;;2.22;;
72755;SDS011;60881;55.002;73.232;2022-09-23T03:15:39;21.88;;;2.60;;
72755;SDS011;60881;55.002;73.232;2022-09-23T03:18:30;23.13;;;3.00;;
72755;SDS011;60881;55.002;73.232;2022-09-23T03:23:52;20.63;;;2.55;;
72755;SDS011;60881;55.002;73.232;2022-09-23T03:26:22;18.10;;;2.83;;
72755;SDS011;60881;55.002;73.232;2022-09-23T03:29:06;22.25;;;4.00;;
72755;SDS011;60881;55.002;73.232;2022-09-23T03:31:46;24.88;;;4.00;;
72755;SDS011;60881;55.002;73.232;2022-09-23T03:34:17;25.38;;;4.30;;
72755;SDS011;60881;55.002;73.232;2022-09-23T03:36:53;28.83;;;4.30;;
72755;SDS011;60881;55.002;73.232;2022-09-23T03:39:41;26.85;;;4.32;;
72755;SDS011;60881;55.002;73.232;2022-09-23T03:42:25;35.97;;;4.70;;
72755;SDS011;60881;55.002;73.232;2022-09-23T03:44:55;24.92;;;4.28;;
72755;SDS011;60881;55.002;73.232;2022-09-23T03:47:23;30.80;;;4.75;;
72755;SDS011;60881;55.002;73.232;2022-09-23T03:49:51;27.35;;;4.90;;
72755;SDS011;60881;55.002;73.232;2022-09-23T03:52:19;30.00;;;5.53;;
72755;SDS011;60881;55.002;73.232;2022-09-23T03:54:49;24.27;;;5.00;;
72755;SDS011;60881;55.002;73.232;2022-09-23T03:57:16;37.50;;;5.18;;
72755;SDS011;60881;55.002;73.232;2022-09-23T03:59:43;38.20;;;4.97;;
72755;SDS011;60881;55.002;73.232;2022-09-23T04:02:09;41.70;;;5.22;;
72755;SDS011;60881;55.002;73.232;2022-09-23T04:04:36;30.95;;;6.85;;
72755;SDS011;60881;55.002;73.232;2022-09-23T04:07:04;35.00;;;4.63;;
72755;SDS011;60881;55.002;73.232;2022-09-23T04:09:37;36.53;;;5.70;;
72755;SDS011;60881;55.002;73.232;2022-09-23T04:12:04;39.15;;;5.63;;
72755;SDS011;60881;55.002;73.232;2022-09-23T04:14:32;30.38;;;6.05;;
72755;SDS011;60881;55.002;73.232;2022-09-23T04:16:59;33.38;;;6.30;;
72755;SDS011;60881;55.002;73.232;2022-09-23T04:19:26;35.83;;;7.38;;
72755;SDS011;60881;55.002;73.232;2022-09-23T04:21:53;32.78;;;7.22;;
72755;SDS011;60881;55.002;73.232;2022-09-23T04:24:20;46.08;;;9.05;;
72755;SDS011;60881;55.002;73.232;2022-09-23T04:26:49;50.63;;;10.45;;
72755;SDS011;60881;55.002;73.232;2022-09-23T04:29:19;42.58;;;10.57;;
72755;SDS011;60881;55.002;73.232;2022-09-23T04:31:56;34.53;;;11.10;;
72755;SDS011;60881;55.002;73.232;2022-09-23T04:34:22;52.42;;;11.13;;
72755;SDS011;60881;55.002;73.232;2022-09-23T04:36:49;60.33;;;14.35;;
72755;SDS011;60881;55.002;73.232;2022-09-23T04:39:20;42.13;;;14.13;;
72755;SDS011;60881;55.002;73.232;2022-09-23T04:41:57;44.60;;;13.20;;
72755;SDS011;60881;55.002;73.232;2022-09-23T04:44:25;51.40;;;13.55;;
72755;SDS011;60881;55.002;73.232;2022-09-23T04:46:53;53.17;;;13.93;;
72755;SDS011;60881;55.002;73.232;2022-09-23T04:49:19;44.70;;;14.48;;
72755;SDS011;60881;55.002;73.232;2022-09-23T04:51:47;47.13;;;14.73;;
72755;SDS011;60881;55.002;73.232;2022-09-23T04:54:14;46.33;;;14.68;;
72755;SDS011;60881;55.002;73.232;2022-09-23T04:56:41;40.45;;;13.95;;
72755;SDS011;60881;55.002;73.232;2022-09-23T04:59:07;43.17;;;14.52;;
72755;SDS011;60881;55.002;73.232;2022-09-23T05:01:34;40.38;;;13.85;;
72755;SDS011;60881;55.002;73.232;2022-09-23T05:04:02;43.03;;;14.80;;
72755;SDS011;60881;55.002;73.232;2022-09-23T05:06:30;44.45;;;14.15;;
72755;SDS011;60881;55.002;73.232;2022-09-23T05:08:59;43.58;;;13.73;;
72755;SDS011;60881;55.002;73.232;2022-09-23T05:11:27;58.45;;;14.20;;
72755;SDS011;60881;55.002;73.232;2022-09-23T05:13:56;58.63;;;13.93;;
72755;SDS011;60881;55.002;73.232;2022-09-23T05:16:23;48.10;;;14.35;;
72755;SDS011;60881;55.002;73.232;2022-09-23T05:19:00;43.45;;;12.85;;
72755;SDS011;60881;55.002;73.232;2022-09-23T05:21:27;59.38;;;14.88;;
72755;SDS011;60881;55.002;73.232;2022-09-23T05:23:54;51.92;;;14.15;;
72755;SDS011;60881;55.002;73.232;2022-09-23T05:26:24;41.38;;;13.20;;
72755;SDS011;60881;55.002;73.232;2022-09-23T05:28:56;63.30;;;14.93;;
72755;SDS011;60881;55.002;73.232;2022-09-23T05:31:26;66.38;;;13.65;;
72755;SDS011;60881;55.002;73.232;2022-09-23T05:33:57;65.03;;;14.00;;
72755;SDS011;60881;55.002;73.232;2022-09-23T05:36:25;62.20;;;13.48;;
72755;SDS011;60881;55.002;73.232;2022-09-23T05:38:58;48.85;;;12.70;;
72755;SDS011;60881;55.002;73.232;2022-09-23T05:41:27;42.40;;;12.40;;
72755;SDS011;60881;55.002;73.232;2022-09-23T05:43:53;57.35;;;13.23;;
72755;SDS011;60881;55.002;73.232;2022-09-23T05:46:25;46.20;;;12.10;;
72755;SDS011;60881;55.002;73.232;2022-09-23T05:49:02;41.03;;;11.65;;
72755;SDS011;60881;55.002;73.232;2022-09-23T05:51:30;40.70;;;11.88;;
72755;SDS011;60881;55.002;73.232;2022-09-23T05:53:59;45.92;;;12.95;;
72755;SDS011;60881;55.002;73.232;2022-09-23T05:56:30;44.35;;;12.48;;
72755;SDS011;60881;55.002;73.232;2022-09-23T05:58:58;39.80;;;11.00;;
72755;SDS011;60881;55.002;73.232;2022-09-23T06:01:26;55.97;;;11.88;;
72755;SDS011;60881;55.002;73.232;2022-09-23T06:03:58;52.03;;;11.48;;
72755;SDS011;60881;55.002;73.232;2022-09-23T06:08:59;44.63;;;10.90;;
72755;SDS011;60881;55.002;73.232;2022-09-23T06:11:28;47.75;;;10.80;;
72755;SDS011;60881;55.002;73.232;2022-09-23T06:16:27;47.70;;;9.55;;
72755;SDS011;60881;55.002;73.232;2022-09-23T06:18:54;44.65;;;10.43;;
72755;SDS011;60881;55.002;73.232;2022-09-23T06:21:32;53.35;;;10.00;;
72755;SDS011;60881;55.002;73.232;2022-09-23T06:24:02;43.70;;;10.82;;
72755;SDS011;60881;55.002;73.232;2022-09-23T06:26:29;58.55;;;10.60;;
72755;SDS011;60881;55.002;73.232;2022-09-23T06:28:58;39.65;;;10.07;;
72755;SDS011;60881;55.002;73.232;2022-09-23T06:31:37;67.53;;;10.77;;
72755;SDS011;60881;55.002;73.232;2022-09-23T06:34:05;57.42;;;9.82;;
72755;SDS011;60881;55.002;73.232;2022-09-23T06:36:32;47.70;;;10.13;;
72755;SDS011;60881;55.002;73.232;2022-09-23T06:38:58;56.70;;;9.70;;
72755;SDS011;60881;55.002;73.232;2022-09-23T06:41:32;54.58;;;9.57;;
72755;SDS011;60881;55.002;73.232;2022-09-23T06:43:59;45.97;;;9.18;;
72755;SDS011;60881;55.002;73.232;2022-09-23T06:46:26;42.53;;;8.75;;
72755;SDS011;60881;55.002;73.232;2022-09-23T06:48:53;42.85;;;9.00;;
72755;SDS011;60881;55.002;73.232;2022-09-23T06:51:20;44.10;;;8.20;;
72755;SDS011;60881;55.002;73.232;2022-09-23T06:53:49;32.05;;;8.55;;
72755;SDS011;60881;55.002;73.232;2022-09-23T06:56:16;39.28;;;9.13;;
72755;SDS011;60881;55.002;73.232;2022-09-23T06:58:44;48.45;;;9.05;;
72755;SDS011;60881;55.002;73.232;2022-09-23T07:01:20;29.77;;;7.93;;
72755;SDS011;60881;55.002;73.232;2022-09-23T07:03:47;39.42;;;8.50;;
72755;SDS011;60881;55.002;73.232;2022-09-23T07:06:14;39.95;;;9.73;;
72755;SDS011;60881;55.002;73.232;2022-09-23T07:08:42;31.13;;;8.38;;
72755;SDS011;60881;55.002;73.232;2022-09-23T07:11:09;39.28;;;8.07;;
72755;SDS011;60881;55.002;73.232;2022-09-23T07:13:38;25.88;;;7.38;;
72755;SDS011;60881;55.002;73.232;2022-09-23T07:16:06;37.38;;;8.20;;
72755;SDS011;60881;55.002;73.232;2022-09-23T07:18:33;24.52;;;7.78;;
72755;SDS011;60881;55.002;73.232;2022-09-23T07:21:19;51.55;;;8.48;;
72755;SDS011;60881;55.002;73.232;2022-09-23T07:23:46;43.28;;;7.97;;
72755;SDS011;60881;55.002;73.232;2022-09-23T07:26:23;43.50;;;8.73;;
72755;SDS011;60881;55.002;73.232;2022-09-23T07:28:52;64.85;;;9.98;;
72755;SDS011;60881;55.002;73.232;2022-09-23T07:31:20;45.25;;;9.43;;
72755;SDS011;60881;55.002;73.232;2022-09-23T07:33:46;50.90;;;9.50;;
72755;SDS011;60881;55.002;73.232;2022-09-23T07:36:14;57.38;;;12.10;;
72755;SDS011;60881;55.002;73.232;2022-09-23T07:38:43;82.80;;;13.38;;
72755;SDS011;60881;55.002;73.232;2022-09-23T07:41:17;82.65;;;13.05;;
72755;SDS011;60881;55.002;73.232;2022-09-23T07:43:45;79.80;;;13.60;;
72755;SDS011;60881;55.002;73.232;2022-09-23T07:46:17;65.25;;;14.52;;
72755;SDS011;60881;55.002;73.232;2022-09-23T07:48:44;86.30;;;15.45;;
72755;SDS011;60881;55.002;73.232;2022-09-23T07:51:18;76.47;;;12.20;;
72755;SDS011;60881;55.002;73.232;2022-09-23T07:53:55;60.88;;;12.57;;
72755;SDS011;60881;55.002;73.232;2022-09-23T07:56:23;68.00;;;13.00;;
72755;SDS011;60881;55.002;73.232;2022-09-23T07:58:52;61.10;;;13.27;;
72755;SDS011;60881;55.002;73.232;2022-09-23T08:01:25;54.10;;;11.88;;
72755;SDS011;60881;55.002;73.232;2022-09-23T08:03:55;59.53;;;12.52;;
72755;SDS011;60881;55.002;73.232;2022-09-23T08:06:26;58.17;;;11.90;;
72755;SDS011;60881;55.002;73.232;2022-09-23T08:08:52;56.85;;;11.23;;
72755;SDS011;60881;55.002;73.232;2022-09-23T08:11:18;63.63;;;12.07;;
72755;SDS011;60881;55.002;73.232;2022-09-23T08:13:45;51.85;;;10.80;;
72755;SDS011;60881;55.002;73.232;2022-09-23T08:16:15;60.10;;;10.93;;
72755;SDS011;60881;55.002;73.232;2022-09-23T08:18:42;60.22;;;10.60;;
72755;SDS011;60881;55.002;73.232;2022-09-23T08:21:11;56.17;;;11.02;;
72755;SDS011;60881;55.002;73.232;2022-09-23T08:23:37;56.42;;;11.18;;
72755;SDS011;60881;55.002;73.232;2022-09-23T08:26:05;66.35;;;10.80;;
72755;SDS011;60881;55.002;73.232;2022-09-23T08:28:32;54.50;;;10.20;;
72755;SDS011;60881;55.002;73.232;2022-09-23T08:31:04;53.97;;;9.70;;
72755;SDS011;60881;55.002;73.232;2022-09-23T08:33:32;51.03;;;9.32;;
72755;SDS011;60881;55.002;73.232;2022-09-23T08:35:59;44.88;;;9.38;;
72755;SDS011;60881;55.002;73.232;2022-09-23T08:38:28;52.58;;;9.75;;
72755;SDS011;60881;55.002;73.232;2022-09-23T08:41:02;53.00;;;8.20;;
72755;SDS011;60881;55.002;73.232;2022-09-23T08:43:43;45.90;;;8.32;;
72755;SDS011;60881;55.002;73.232;2022-09-23T08:46:13;49.90;;;9.20;;
72755;SDS011;60881;55.002;73.232;2022-09-23T08:48:46;41.65;;;8.32;;
72755;SDS011;60881;55.002;73.232;2022-09-23T08:51:28;47.00;;;8.40;;
72755;SDS011;60881;55.002;73.232;2022-09-23T08:54:00;43.28;;;7.72;;
72755;SDS011;60881;55.002;73.232;2022-09-23T08:56:27;38.63;;;7.40;;
72755;SDS011;60881;55.002;73.232;2022-09-23T09:01:43;46.67;;;7.90;;
72755;SDS011;60881;55.002;73.232;2022-09-23T09:04:25;48.70;;;8.50;;
72755;SDS011;60881;55.002;73.232;2022-09-23T09:09:44;39.90;;;8.50;;
72755;SDS011;60881;55.002;73.232;2022-09-23T09:15:14;55.50;;;8.70;;
72755;SDS011;60881;55.002;73.232;2022-09-23T09:20:53;39.65;;;9.20;;
72755;SDS011;60881;55.002;73.232;2022-09-23T09:23:56;38.88;;;8.57;;
72755;SDS011;60881;55.002;73.232;2022-09-23T09:26:28;49.10;;;8.88;;
72755;SDS011;60881;55.002;73.232;2022-09-23T09:29:23;42.97;;;8.30;;
72755;SDS011;60881;55.002;73.232;2022-09-23T09:32:49;41.25;;;8.45;;
72755;SDS011;60881;55.002;73.232;2022-09-23T09:35:19;46.15;;;8.55;;
72755;SDS011;60881;55.002;73.232;2022-09-23T09:37:57;48.38;;;8.63;;
72755;SDS011;60881;55.002;73.232;2022-09-23T09:40:24;59.10;;;8.98;;
72755;SDS011;60881;55.002;73.232;2022-09-23T09:42:50;43.50;;;8.68;;
72755;SDS011;60881;55.002;73.232;2022-09-23T09:45:33;56.78;;;9.40;;
72755;SDS011;60881;55.002;73.232;2022-09-23T09:49:09;43.95;;;8.68;;
72755;SDS011;60881;55.002;73.232;2022-09-23T09:51:19;35.97;;;8.82;;
72755;SDS011;60881;55.002;73.232;2022-09-23T09:53:48;40.05;;;9.27;;
72755;SDS011;60881;55.002;73.232;2022-09-23T09:56:19;40.78;;;9.45;;
72755;SDS011;60881;55.002;73.232;2022-09-23T09:59:00;52.75;;;10.48;;
72755;SDS011;60881;55.002;73.232;2022-09-23T10:01:34;37.60;;;9.35;;
72755;SDS011;60881;55.002;73.232;2022-09-23T10:04:18;56.25;;;9.65;;
72755;SDS011;60881;55.002;73.232;2022-09-23T10:07:07;46.15;;;10.13;;
72755;SDS011;60881;55.002;73.232;2022-09-23T10:09:48;43.00;;;9.75;;
72755;SDS011;60881;55.002;73.232;2022-09-23T10:12:18;50.92;;;10.20;;
72755;SDS011;60881;55.002;73.232;2022-09-23T10:14:55;59.17;;;11.18;;
72755;SDS011;60881;55.002;73.232;2022-09-23T10:17:26;67.03;;;11.32;;
72755;SDS011;60881;55.002;73.232;2022-09-23T10:20:02;53.05;;;10.73;;
72755;SDS011;60881;55.002;73.232;2022-09-23T10:22:34;43.55;;;9.27;;
72755;SDS011;60881;55.002;73.232;2022-09-23T10:25:20;49.42;;;9.48;;
72755;SDS011;60881;55.002;73.232;2022-09-23T10:27:51;45.17;;;10.85;;
72755;SDS011;60881;55.002;73.232;2022-09-23T10:30:24;61.80;;;11.00;;
72755;SDS011;60881;55.002;73.232;2022-09-23T10:35:20;45.42;;;10.55;;
72755;SDS011;60881;55.002;73.232;2022-09-23T10:37:51;73.38;;;10.90;;
72755;SDS011;60881;55.002;73.232;2022-09-23T10:46:04;59.33;;;10.32;;
72755;SDS011;60881;55.002;73.232;2022-09-23T10:51:38;61.97;;;10.10;;
72755;SDS011;60881;55.002;73.232;2022-09-23T10:56:53;77.35;;;11.05;;
72755;SDS011;60881;55.002;73.232;2022-09-23T11:07:44;57.00;;;10.75;;
72755;SDS011;60881;55.002;73.232;2022-09-23T11:26:42;55.10;;;10.55;;
72755;SDS011;60881;55.002;73.232;2022-09-23T11:40:35;49.50;;;10.15;;
72755;SDS011;60881;55.002;73.232;2022-09-23T11:43:15;55.97;;;11.18;;
72755;SDS011;60881;55.002;73.232;2022-09-23T11:48:24;63.10;;;11.00;;
72755;SDS011;60881;55.002;73.232;2022-09-23T11:50:58;56.13;;;11.20;;
72755;SDS011;60881;55.002;73.232;2022-09-23T11:53:46;44.58;;;10.30;;
72755;SDS011;60881;55.002;73.232;2022-09-23T12:01:44;59.65;;;10.75;;
72755;SDS011;60881;55.002;73.232;2022-09-23T12:06:50;52.83;;;10.45;;
72755;SDS011;60881;55.002;73.232;2022-09-23T12:09:36;65.43;;;11.00;;
72755;SDS011;60881;55.002;73.232;2022-09-23T12:15:02;61.22;;;10.55;;
72755;SDS011;60881;55.002;73.232;2022-09-23T12:20:59;62.53;;;10.93;;
72755;SDS011;60881;55.002;73.232;2022-09-23T12:23:58;53.83;;;10.38;;
72755;SDS011;60881;55.002;73.232;2022-09-23T12:26:51;46.15;;;9.85;;
72755;SDS011;60881;55.002;73.232;2022-09-23T12:29:21;71.55;;;10.77;;
72755;SDS011;60881;55.002;73.232;2022-09-23T12:31:50;56.92;;;10.52;;
72755;SDS011;60881;55.002;73.232;2022-09-23T12:34:27;60.22;;;10.43;;
72755;SDS011;60881;55.002;73.232;2022-09-23T12:37:01;63.75;;;10.73;;
72755;SDS011;60881;55.002;73.232;2022-09-23T12:39:29;63.45;;;10.55;;
72755;SDS011;60881;55.002;73.232;2022-09-23T12:42:00;72.47;;;11.75;;
72755;SDS011;60881;55.002;73.232;2022-09-23T12:44:40;71.75;;;11.40;;
72755;SDS011;60881;55.002;73.232;2022-09-23T12:49:50;67.35;;;10.68;;
72755;SDS011;60881;55.002;73.232;2022-09-23T12:57:45;54.17;;;11.18;;
72755;SDS011;60881;55.002;73.232;2022-09-23T13:00:33;53.75;;;10.63;;
72755;SDS011;60881;55.002;73.232;2022-09-23T13:03:04;66.97;;;10.77;;
72755;SDS011;60881;55.002;73.232;2022-09-23T13:05:57;71.90;;;11.40;;
72755;SDS011;60881;55.002;73.232;2022-09-23T13:08:55;60.85;;;11.15;;
72755;SDS011;60881;55.002;73.232;2022-09-23T13:13:49;63.80;;;11.07;;
72755;SDS011;60881;55.002;73.232;2022-09-23T13:16:20;66.05;;;10.65;;
72755;SDS011;60881;55.002;73.232;2022-09-23T13:30:21;54.63;;;8.43;;
72755;SDS011;60881;55.002;73.232;2022-09-23T13:33:11;51.60;;;8.63;;
72755;SDS011;60881;55.002;73.232;2022-09-23T13:35:49;55.13;;;9.82;;
72755;SDS011;60881;55.002;73.232;2022-09-23T13:38:22;65.35;;;10.07;;
72755;SDS011;60881;55.002;73.232;2022-09-23T13:40:52;64.47;;;10.70;;
72755;SDS011;60881;55.002;73.232;2022-09-23T13:43:23;63.33;;;10.95;;
72755;SDS011;60881;55.002;73.232;2022-09-23T13:45:55;64.45;;;10.32;;
72755;SDS011;60881;55.002;73.232;2022-09-23T13:48:23;57.45;;;10.55;;
72755;SDS011;60881;55.002;73.232;2022-09-23T13:50:53;110.50;;;13.23;;
72755;SDS011;60881;55.002;73.232;2022-09-23T13:53:25;150.70;;;14.48;;
72755;SDS011;60881;55.002;73.232;2022-09-23T13:56:06;141.75;;;15.82;;
72755;SDS011;60881;55.002;73.232;2022-09-23T13:58:50;99.75;;;13.63;;
72755;SDS011;60881;55.002;73.232;2022-09-23T14:01:30;153.65;;;21.30;;
72755;SDS011;60881;55.002;73.232;2022-09-23T14:04:03;103.32;;;14.35;;
72755;SDS011;60881;55.002;73.232;2022-09-23T14:06:40;94.82;;;13.95;;
72755;SDS011;60881;55.002;73.232;2022-09-23T14:09:06;119.22;;;14.88;;
72755;SDS011;60881;55.002;73.232;2022-09-23T14:11:33;98.57;;;15.73;;
72755;SDS011;60881;55.002;73.232;2022-09-23T14:14:00;111.53;;;15.80;;
72755;SDS011;60881;55.002;73.232;2022-09-23T14:16:42;123.80;;;19.55;;
72755;SDS011;60881;55.002;73.232;2022-09-23T14:19:19;99.30;;;16.27;;
72755;SDS011;60881;55.002;73.232;2022-09-23T14:21:48;101.15;;;18.42;;
72755;SDS011;60881;55.002;73.232;2022-09-23T14:24:23;146.98;;;19.90;;
72755;SDS011;60881;55.002;73.232;2022-09-23T14:27:05;156.80;;;25.23;;
72755;SDS011;60881;55.002;73.232;2022-09-23T14:29:50;143.18;;;25.67;;
72755;SDS011;60881;55.002;73.232;2022-09-23T14:32:22;146.63;;;25.42;;
72755;SDS011;60881;55.002;73.232;2022-09-23T14:40:18;119.03;;;19.63;;
72755;SDS011;60881;55.002;73.232;2022-09-23T14:42:49;125.32;;;21.23;;
72755;SDS011;60881;55.002;73.232;2022-09-23T14:45:18;127.40;;;22.65;;
72755;SDS011;60881;55.002;73.232;2022-09-23T14:47:55;109.07;;;18.67;;
72755;SDS011;60881;55.002;73.232;2022-09-23T14:50:34;116.13;;;19.40;;
72755;SDS011;60881;55.002;73.232;2022-09-23T14:53:03;99.47;;;17.70;;
72755;SDS011;60881;55.002;73.232;2022-09-23T14:55:51;95.38;;;18.23;;
72755;SDS011;60881;55.002;73.232;2022-09-23T14:58:22;96.00;;;17.38;;
72755;SDS011;60881;55.002;73.232;2022-09-23T15:01:03;110.80;;;18.05;;
72755;SDS011;60881;55.002;73.232;2022-09-23T15:04:14;105.60;;;17.55;;
72755;SDS011;60881;55.002;73.232;2022-09-23T15:06:53;94.00;;;17.50;;
72755;SDS011;60881;55.002;73.232;2022-09-23T15:09:41;108.18;;;19.10;;
72755;SDS011;60881;55.002;73.232;2022-09-23T15:14:49;105.25;;;18.20;;
72755;SDS011;60881;55.002;73.232;2022-09-23T15:19:56;125.60;;;21.15;;
72755;SDS011;60881;55.002;73.232;2022-09-23T15:22:26;133.57;;;25.65;;
72755;SDS011;60881;55.002;73.232;2022-09-23T15:30:37;119.78;;;27.48;;
72755;SDS011;60881;55.002;73.232;2022-09-23T15:33:04;132.05;;;33.22;;
72755;SDS011;60881;55.002;73.232;2022-09-23T15:35:34;144.65;;;36.22;;
72755;SDS011;60881;55.002;73.232;2022-09-23T15:38:02;138.20;;;42.03;;
72755;SDS011;60881;55.002;73.232;2022-09-23T15:40:30;141.95;;;44.95;;
72755;SDS011;60881;55.002;73.232;2022-09-23T15:43:12;171.55;;;57.85;;
72755;SDS011;60881;55.002;73.232;2022-09-23T15:45:46;193.32;;;60.03;;
72755;SDS011;60881;55.002;73.232;2022-09-23T15:48:30;182.65;;;60.83;;
72755;SDS011;60881;55.002;73.232;2022-09-23T15:51:06;189.45;;;60.45;;
72755;SDS011;60881;55.002;73.232;2022-09-23T15:53:34;191.02;;;62.38;;
72755;SDS011;60881;55.002;73.232;2022-09-23T15:56:03;179.02;;;63.33;;
72755;SDS011;60881;55.002;73.232;2022-09-23T15:58:35;184.77;;;60.17;;
72755;SDS011;60881;55.002;73.232;2022-09-23T16:01:03;188.10;;;64.65;;
72755;SDS011;60881;55.002;73.232;2022-09-23T16:03:35;197.00;;;65.43;;
72755;SDS011;60881;55.002;73.232;2022-09-23T16:06:03;198.68;;;62.95;;
72755;SDS011;60881;55.002;73.232;2022-09-23T16:08:41;196.07;;;64.18;;
72755;SDS011;60881;55.002;73.232;2022-09-23T16:11:17;181.35;;;62.00;;
72755;SDS011;60881;55.002;73.232;2022-09-23T16:13:58;190.40;;;61.13;;
72755;SDS011;60881;55.002;73.232;2022-09-23T16:16:26;189.52;;;59.97;;
72755;SDS011;60881;55.002;73.232;2022-09-23T16:18:53;187.38;;;59.28;;
72755;SDS011;60881;55.002;73.232;2022-09-23T16:21:20;187.35;;;68.75;;
72755;SDS011;60881;55.002;73.232;2022-09-23T16:24:00;199.13;;;59.80;;
72755;SDS011;60881;55.002;73.232;2022-09-23T16:26:33;201.80;;;61.08;;
72755;SDS011;60881;55.002;73.232;2022-09-23T16:29:01;204.65;;;63.15;;
72755;SDS011;60881;55.002;73.232;2022-09-23T16:31:28;211.50;;;65.80;;
72755;SDS011;60881;55.002;73.232;2022-09-23T16:34:06;208.75;;;66.03;;
72755;SDS011;60881;55.002;73.232;2022-09-23T16:36:33;203.32;;;71.60;;
72755;SDS011;60881;55.002;73.232;2022-09-23T16:39:04;208.20;;;73.45;;
72755;SDS011;60881;55.002;73.232;2022-09-23T16:41:32;198.00;;;70.00;;
72755;SDS011;60881;55.002;73.232;2022-09-23T16:44:01;210.77;;;65.50;;
72755;SDS011;60881;55.002;73.232;2022-09-23T16:46:29;191.65;;;65.05;;
72755;SDS011;60881;55.002;73.232;2022-09-23T16:48:56;187.20;;;65.43;;
72755;SDS011;60881;55.002;73.232;2022-09-23T16:51:27;186.55;;;64.47;;
72755;SDS011;60881;55.002;73.232;2022-09-23T16:53:56;190.20;;;65.90;;
72755;SDS011;60881;55.002;73.232;2022-09-23T16:56:25;203.30;;;67.13;;
72755;SDS011;60881;55.002;73.232;2022-09-23T16:58:53;165.20;;;54.28;;
72755;SDS011;60881;55.002;73.232;2022-09-23T17:01:24;174.35;;;60.92;;
72755;SDS011;60881;55.002;73.232;2022-09-23T17:04:11;187.45;;;60.63;;
72755;SDS011;60881;55.002;73.232;2022-09-23T17:06:42;187.30;;;61.75;;
72755;SDS011;60881;55.002;73.232;2022-09-23T17:09:25;193.02;;;61.50;;
72755;SDS011;60881;55.002;73.232;2022-09-23T17:14:27;197.35;;;59.47;;
72755;SDS011;60881;55.002;73.232;2022-09-23T17:16:56;194.68;;;61.38;;
72755;SDS011;60881;55.002;73.232;2022-09-23T17:19:23;182.10;;;57.17;;
72755;SDS011;60881;55.002;73.232;2022-09-23T17:21:50;172.75;;;56.70;;
72755;SDS011;60881;55.002;73.232;2022-09-23T17:24:19;163.30;;;55.10;;
72755;SDS011;60881;55.002;73.232;2022-09-23T17:26:52;180.50;;;56.20;;
72755;SDS011;60881;55.002;73.232;2022-09-23T17:29:18;169.55;;;57.38;;
72755;SDS011;60881;55.002;73.232;2022-09-23T17:31:46;179.10;;;58.88;;
72755;SDS011;60881;55.002;73.232;2022-09-23T17:34:12;195.35;;;60.30;;
72755;SDS011;60881;55.002;73.232;2022-09-23T17:36:39;174.15;;;59.35;;
72755;SDS011;60881;55.002;73.232;2022-09-23T17:39:06;170.95;;;57.22;;
72755;SDS011;60881;55.002;73.232;2022-09-23T17:41:32;178.10;;;57.38;;
72755;SDS011;60881;55.002;73.232;2022-09-23T17:43:59;154.13;;;55.50;;
72755;SDS011;60881;55.002;73.232;2022-09-23T17:46:29;159.07;;;56.58;;
72755;SDS011;60881;55.002;73.232;2022-09-23T17:48:56;161.05;;;55.90;;
72755;SDS011;60881;55.002;73.232;2022-09-23T17:51:23;180.85;;;57.17;;